Time;durP1;ratioP1;P1;durP2;ratioP2;P2;SDS_P1;SDS_P2;PMS_P1;PMS_P2;Temp;Humidity;BMP_temperature;BMP_pressure;BME280_temperature;BME280_humidity;BME280_pressure;Samples;Min_cycle;Max_cycle;Signal;HPM_P1;HPM_P2
2021/05/14 00:00:25;;;;;;;10.65;5.03;;;13.70;99.90;;;;;;4754966;30;20606;-81
2021/05/14 00:02:51;;;;;;;10.02;5.20;;;13.70;99.90;;;;;;4754839;30;20186;-80
2021/05/14 00:05:18;;;;;;;7.82;4.68;;;;;;;;;;4755514;30;20191;-81
2021/05/14 00:07:43;;;;;;;6.05;4.05;;;13.60;99.90;;;;;;4754886;30;20195;-81
2021/05/14 00:10:10;;;;;;;7.30;4.40;;;13.60;99.90;;;;;;4755390;30;20201;-81
2021/05/14 00:12:36;;;;;;;7.03;4.47;;;13.50;99.90;;;;;;4755583;30;20194;-81
2021/05/14 00:15:03;;;;;;;5.72;4.30;;;13.70;99.90;;;;;;4755096;30;20190;-81
2021/05/14 00:17:28;;;;;;;5.47;4.07;;;13.80;99.90;;;;;;4760593;30;20237;-81
2021/05/14 00:19:54;;;;;;;5.80;3.97;;;;;;;;;;4756739;30;20272;-81
2021/05/14 00:22:20;;;;;;;5.70;4.55;;;;;;;;;;4772915;30;20186;-81
2021/05/14 00:24:47;;;;;;;5.28;3.90;;;13.50;99.90;;;;;;4772949;30;20713;-81
2021/05/14 00:27:13;;;;;;;7.05;4.60;;;13.30;99.90;;;;;;4756993;30;20660;-81
2021/05/14 00:29:39;;;;;;;5.68;4.22;;;13.40;99.90;;;;;;4756964;30;20281;-81
2021/05/14 00:32:04;;;;;;;7.63;4.03;;;13.60;99.90;;;;;;4756271;30;20190;-81
2021/05/14 00:34:30;;;;;;;5.55;3.55;;;14.00;99.90;;;;;;4772650;30;20595;-81
2021/05/14 00:36:56;;;;;;;6.40;4.30;;;13.50;99.90;;;;;;4756336;30;20224;-81
2021/05/14 00:39:22;;;;;;;8.10;3.72;;;;;;;;;;4756671;30;20225;-80
2021/05/14 00:41:47;;;;;;;6.10;4.30;;;13.30;99.90;;;;;;4772542;30;20186;-81
2021/05/14 00:44:25;;;;;;;6.95;3.70;;;13.50;99.90;;;;;;4773145;30;20243;-81
2021/05/14 00:46:52;;;;;;;6.55;3.70;;;13.80;99.90;;;;;;4772740;30;20671;-81
2021/05/14 00:49:18;;;;;;;7.82;4.03;;;;;;;;;;4772203;30;20251;-81
2021/05/14 00:51:45;;;;;;;6.53;4.25;;;13.50;99.90;;;;;;4772244;30;20197;-81
2021/05/14 00:54:11;;;;;;;6.07;4.00;;;13.30;99.90;;;;;;4756722;30;20186;-81
2021/05/14 00:56:37;;;;;;;5.43;3.97;;;;;;;;;;4756341;30;20528;-81
2021/05/14 00:59:03;;;;;;;5.80;4.05;;;13.20;99.90;;;;;;4772194;30;20245;-81
2021/05/14 01:01:28;;;;;;;5.97;3.60;;;13.20;99.90;;;;;;4756350;30;20327;-80
2021/05/14 01:03:55;;;;;;;5.07;3.75;;;;;;;;;;4756055;30;20265;-81
2021/05/14 01:06:20;;;;;;;5.65;3.92;;;13.60;99.90;;;;;;4772474;30;20641;-81
2021/05/14 01:08:47;;;;;;;6.90;3.80;;;;;;;;;;4772321;30;20201;-85
2021/05/14 01:11:12;;;;;;;6.25;3.90;;;13.10;99.90;;;;;;4772102;30;20801;-81
2021/05/14 01:13:38;;;;;;;5.00;3.67;;;;;;;;;;4756599;30;20279;-80
2021/05/14 01:16:04;;;;;;;5.38;3.20;;;13.10;99.90;;;;;;4771776;30;20194;-81
2021/05/14 01:18:30;;;;;;;3.88;3.25;;;;;;;;;;4755419;30;20596;-81
2021/05/14 01:20:56;;;;;;;4.72;3.35;;;13.10;99.90;;;;;;4755758;30;20202;-81
2021/05/14 01:23:22;;;;;;;4.35;3.70;;;13.10;99.90;;;;;;4772072;30;20195;-80
2021/05/14 01:25:48;;;;;;;6.38;3.83;;;13.20;99.90;;;;;;4771840;30;20218;-80
2021/05/14 01:28:14;;;;;;;4.47;3.58;;;13.20;99.90;;;;;;4756170;30;20201;-80
2021/05/14 01:30:40;;;;;;;4.53;3.70;;;;;;;;;;4771912;30;20191;-80
2021/05/14 01:33:06;;;;;;;6.28;3.65;;;13.10;99.90;;;;;;4772531;30;20272;-81
2021/05/14 01:35:31;;;;;;;5.05;3.85;;;12.90;99.90;;;;;;4772621;30;20278;-80
2021/05/14 01:37:58;;;;;;;4.32;3.55;;;;;;;;;;4773697;30;20607;-81
2021/05/14 01:40:24;;;;;;;11.32;3.63;;;13.20;99.90;;;;;;4771933;30;20225;-81
2021/05/14 01:42:50;;;;;;;5.13;3.70;;;13.10;99.90;;;;;;4771498;30;20202;-81
2021/05/14 01:45:16;;;;;;;4.13;3.28;;;12.90;99.90;;;;;;4755730;30;20190;-82
2021/05/14 01:47:42;;;;;;;5.68;3.25;;;12.80;99.90;;;;;;4755130;30;20602;-82
2021/05/14 01:50:09;;;;;;;4.97;3.47;;;12.90;99.90;;;;;;4755564;30;20185;-82
2021/05/14 01:52:35;;;;;;;4.88;3.50;;;;;;;;;;4740751;30;20682;-81
2021/05/14 01:55:01;;;;;;;5.22;3.65;;;12.60;99.90;;;;;;4755028;30;20519;-82
2021/05/14 01:57:28;;;;;;;4.70;3.45;;;13.30;99.90;;;;;;4771131;30;20189;-82
2021/05/14 01:59:54;;;;;;;5.30;3.65;;;12.70;99.90;;;;;;4770955;30;20224;-82
2021/05/14 02:02:21;;;;;;;5.45;3.17;;;;;;;;;;4754870;30;20194;-81
2021/05/14 02:04:50;;;;;;;3.10;2.78;;;12.80;99.90;;;;;;4755309;30;20542;-82
2021/05/14 02:07:16;;;;;;;5.57;3.22;;;;;;;;;;4755005;30;20190;-81
2021/05/14 02:09:42;;;;;;;3.88;2.88;;;;;;;;;;4754803;30;20186;-81
2021/05/14 02:12:08;;;;;;;4.45;3.25;;;13.00;99.90;;;;;;4754292;30;20281;-81
2021/05/14 02:14:34;;;;;;;3.53;2.88;;;;;;;;;;4770937;30;20277;-81
2021/05/14 02:17:00;;;;;;;5.60;3.20;;;12.50;99.90;;;;;;4770309;30;20185;-82
2021/05/14 02:19:25;;;;;;;3.67;2.80;;;12.40;99.90;;;;;;4755105;30;20248;-81
2021/05/14 02:21:52;;;;;;;4.35;2.95;;;;;;;;;;4754670;30;20694;-80
2021/05/14 02:24:17;;;;;;;7.43;3.00;;;12.90;99.90;;;;;;4754593;30;20242;-80
2021/05/14 02:26:43;;;;;;;3.17;2.80;;;;;;;;;;4754644;30;20189;-79
2021/05/14 02:29:09;;;;;;;4.13;2.90;;;12.50;99.90;;;;;;4770421;30;20214;-80
2021/05/14 02:31:35;;;;;;;4.40;2.97;;;12.60;99.90;;;;;;4770519;30;20193;-80
2021/05/14 02:34:01;;;;;;;4.43;2.78;;;12.40;99.90;;;;;;4753887;30;20182;-80
2021/05/14 02:36:27;;;;;;;4.80;3.05;;;;;;;;;;4754623;30;20190;-80
2021/05/14 02:38:53;;;;;;;3.25;2.72;;;12.70;99.90;;;;;;4770565;30;20704;-80
2021/05/14 02:41:19;;;;;;;4.03;3.08;;;;;;;;;;4770603;30;20201;-80
2021/05/14 02:43:44;;;;;;;3.22;2.92;;;12.30;99.90;;;;;;4770614;30;20272;-80
2021/05/14 02:46:10;;;;;;;3.30;2.88;;;;;;;;;;4754319;30;20281;-80
2021/05/14 02:48:37;;;;;;;5.00;3.20;;;12.80;99.90;;;;;;4770678;30;20199;-81
2021/05/14 02:51:04;;;;;;;5.25;3.20;;;12.90;99.90;;;;;;4770564;30;20277;-80
2021/05/14 02:53:30;;;;;;;3.35;2.50;;;;;;;;;;4770294;30;20625;-80
2021/05/14 02:55:55;;;;;;;3.95;2.92;;;12.50;99.90;;;;;;4770108;30;20196;-80
2021/05/14 02:58:21;;;;;;;4.97;2.75;;;;;;;;;;4770540;30;20536;-79
2021/05/14 03:00:47;;;;;;;3.33;3.03;;;12.70;99.90;;;;;;4754095;30;20304;-80
2021/05/14 03:03:13;;;;;;;5.78;3.00;;;;;;;;;;4754249;30;20264;-81
2021/05/14 03:05:39;;;;;;;3.40;3.10;;;12.60;99.90;;;;;;4754695;30;20550;-80
2021/05/14 03:08:05;;;;;;;3.75;3.08;;;;;;;;;;4753946;30;20190;-81
2021/05/14 03:10:31;;;;;;;4.70;2.95;;;12.60;99.90;;;;;;4770211;30;20186;-80
2021/05/14 03:12:57;;;;;;;3.40;2.60;;;;;;;;;;4770394;30;20294;-81
2021/05/14 03:15:23;;;;;;;5.47;3.20;;;;;;;;;;4753519;30;20691;-80
2021/05/14 03:17:49;;;;;;;4.43;2.97;;;;;;;;;;4770230;30;20245;-80
2021/05/14 03:20:15;;;;;;;4.07;3.00;;;12.70;99.90;;;;;;4769871;30;20217;-80
2021/05/14 03:22:40;;;;;;;8.25;2.60;;;12.80;99.90;;;;;;4739625;30;20555;-80
2021/05/14 03:25:10;;;;;;;3.05;2.75;;;12.80;99.90;;;;;;4769691;30;20224;-80
2021/05/14 03:27:36;;;;;;;3.30;2.95;;;12.70;99.90;;;;;;4770212;30;20194;-80
2021/05/14 03:30:04;;;;;;;7.95;3.13;;;9.90;99.90;;;;;;4769983;30;20236;-80
2021/05/14 03:32:30;;;;;;;2.97;2.65;;;12.60;99.90;;;;;;4770278;30;20198;-80
2021/05/14 03:34:56;;;;;;;6.65;3.28;;;;;;;;;;4757415;30;20555;-80
2021/05/14 03:37:22;;;;;;;4.75;2.97;;;13.30;99.90;;;;;;4773394;30;20186;-80
2021/05/14 03:39:52;;;;;;;3.30;2.85;;;;;;;;;;4757034;30;20271;-79
2021/05/14 03:42:23;;;;;;;3.53;2.70;;;12.90;99.90;;;;;;4756843;30;20190;-82
2021/05/14 03:44:49;;;;;;;6.22;3.05;;;13.00;99.90;;;;;;4773978;30;20284;-82
2021/05/14 03:47:16;;;;;;;4.15;2.95;;;13.00;99.90;;;;;;4757463;30;20201;-82
2021/05/14 03:49:41;;;;;;;3.38;2.92;;;13.00;99.90;;;;;;4773354;30;20182;-80
2021/05/14 03:52:09;;;;;;;3.20;2.70;;;13.00;99.90;;;;;;4773178;30;20297;-80
2021/05/14 03:54:35;;;;;;;7.25;2.85;;;12.70;99.90;;;;;;4742088;30;20288;-82
2021/05/14 03:57:02;;;;;;;2.95;2.55;;;;;;;;;;4770393;30;20709;-85
2021/05/14 03:59:27;;;;;;;2.80;2.30;;;13.00;99.90;;;;;;4762903;30;20229;-82
2021/05/14 04:01:53;;;;;;;5.07;2.40;;;;;;;;;;4754516;30;20198;-84
2021/05/14 04:04:21;;;;;;;3.22;2.60;;;13.50;99.90;;;;;;4754645;30;20190;-82
2021/05/14 04:06:47;;;;;;;4.93;2.63;;;;;;;;;;4755191;30;20604;-83
2021/05/14 04:09:12;;;;;;;3.33;2.58;;;13.00;99.90;;;;;;4755245;30;20285;-81
2021/05/14 04:12:05;;;;;;;3.53;2.35;;;;;;;;;;4754721;30;20281;-82
2021/05/14 04:14:30;;;;;;;4.50;2.40;;;13.60;99.90;;;;;;4770433;30;20225;-82
2021/05/14 04:17:03;;;;;;;6.82;2.80;;;13.30;99.90;;;;;;4770447;30;20194;-83
2021/05/14 04:19:29;;;;;;;3.00;2.35;;;13.40;99.90;;;;;;4754156;30;20313;-82
2021/05/14 04:21:56;;;;;;;6.18;2.85;;;13.30;99.90;;;;;;4754989;30;20281;-82
2021/05/14 04:24:23;;;;;;;3.00;2.67;;;13.30;99.90;;;;;;4754489;30;20192;-84
2021/05/14 04:26:50;;;;;;;3.53;2.40;;;13.20;99.90;;;;;;4771707;30;20209;-83
2021/05/14 04:29:16;;;;;;;3.88;2.50;;;13.20;99.90;;;;;;4736663;30;20194;-83
2021/05/14 04:31:43;;;;;;;3.80;2.90;;;13.50;99.90;;;;;;4747096;30;20259;-82
2021/05/14 04:34:10;;;;;;;3.47;2.92;;;13.50;99.90;;;;;;4754946;30;20224;-83
2021/05/14 04:36:36;;;;;;;5.43;2.78;;;;;;;;;;4771334;30;20190;-84
2021/05/14 04:39:02;;;;;;;3.58;2.60;;;13.30;99.90;;;;;;4770765;30;20222;-82
2021/05/14 04:41:28;;;;;;;4.28;2.80;;;;;;;;;;4756171;30;20265;-82
2021/05/14 04:43:53;;;;;;;6.93;3.10;;;13.30;99.90;;;;;;4776202;30;20229;-83
2021/05/14 04:46:19;;;;;;;3.15;2.85;;;;;;;;;;4747067;30;20257;-83
2021/05/14 04:48:45;;;;;;;4.45;3.30;;;13.20;99.90;;;;;;4777027;30;20201;-82
2021/05/14 04:51:11;;;;;;;5.18;2.95;;;13.20;99.90;;;;;;4745800;30;20530;-81
2021/05/14 04:53:37;;;;;;;3.08;2.78;;;;;;;;;;4756201;30;20198;-83
2021/05/14 04:56:04;;;;;;;5.88;3.20;;;13.40;99.90;;;;;;4754050;30;20194;-82
2021/05/14 04:58:30;;;;;;;6.35;3.03;;;13.30;99.90;;;;;;4737647;30;20218;-82
2021/05/14 05:00:56;;;;;;;3.33;3.00;;;13.20;99.90;;;;;;4754001;30;20668;-81
2021/05/14 05:03:22;;;;;;;4.50;3.10;;;;;;;;;;4754017;30;20201;-81
2021/05/14 05:05:48;;;;;;;7.40;2.88;;;13.30;99.90;;;;;;4770001;30;20193;-84
2021/05/14 05:08:14;;;;;;;5.88;3.20;;;13.70;99.90;;;;;;4770383;30;20197;-85
2021/05/14 05:10:40;;;;;;;4.78;3.42;;;14.10;99.90;;;;;;4767826;30;20239;-84
2021/05/14 05:13:06;;;;;;;8.13;3.78;;;13.70;99.90;;;;;;4753289;30;20202;-83
2021/05/14 05:15:31;;;;;;;6.43;3.88;;;14.20;99.90;;;;;;4753136;30;20255;-83
2021/05/14 05:17:57;;;;;;;7.70;3.20;;;13.80;99.90;;;;;;4753528;30;20768;-82
2021/05/14 05:20:23;;;;;;;6.15;3.28;;;;;;;;;;4754157;30;20210;-82
2021/05/14 05:22:49;;;;;;;5.97;3.30;;;;;;;;;;4770329;30;20205;-82
2021/05/14 05:25:15;;;;;;;5.05;3.15;;;;;;;;;;4769954;30;20194;-82
2021/05/14 05:27:41;;;;;;;7.97;3.70;;;13.90;99.90;;;;;;4770341;30;20194;-82
2021/05/14 05:30:08;;;;;;;6.20;3.67;;;14.20;99.90;;;;;;4736591;30;20195;-83
2021/05/14 05:32:34;;;;;;;5.65;3.42;;;14.20;99.90;;;;;;4742313;30;20221;-82
2021/05/14 05:35:00;;;;;;;4.53;3.13;;;;;;;;;;4758424;30;20214;-82
2021/05/14 05:37:26;;;;;;;4.18;3.30;;;;;;;;;;4755803;30;20702;-82
2021/05/14 05:39:51;;;;;;;3.67;2.92;;;14.20;99.90;;;;;;4769441;30;20217;-81
2021/05/14 05:42:17;;;;;;;3.65;3.13;;;15.00;99.90;;;;;;4769742;30;20202;-82
2021/05/14 05:44:43;;;;;;;6.93;4.22;;;;;;;;;;4769268;30;20198;-81
2021/05/14 05:47:09;;;;;;;4.28;3.33;;;14.60;99.90;;;;;;4769885;30;20688;-81
2021/05/14 05:49:34;;;;;;;3.75;3.10;;;14.50;99.90;;;;;;4752971;30;20220;-81
2021/05/14 05:52:00;;;;;;;4.97;3.78;;;;;;;;;;4753093;30;20198;-80
2021/05/14 05:54:26;;;;;;;6.95;4.03;;;14.90;99.90;;;;;;4769356;30;20289;-80
2021/05/14 05:56:57;;;;;;;9.43;4.30;;;;;;;;;;4768266;30;20544;-79
2021/05/14 05:59:23;;;;;;;4.65;3.53;;;;;;;;;;4752527;30;20224;-79
2021/05/14 06:01:49;;;;;;;8.95;4.40;;;14.50;99.90;;;;;;4769020;30;20190;-78
2021/05/14 06:04:15;;;;;;;9.73;4.85;;;;;;;;;;4768591;30;20208;-78
2021/05/14 06:06:41;;;;;;;20.20;4.97;;;14.50;99.90;;;;;;4769220;30;20196;-78
2021/05/14 06:09:06;;;;;;;8.10;5.43;;;14.30;99.90;;;;;;4752976;30;20202;-80
2021/05/14 06:11:32;;;;;;;9.98;5.30;;;;;;;;;;4769161;30;20202;-80
2021/05/14 06:13:58;;;;;;;8.95;6.00;;;;;;;;;;4753375;30;20194;-80
2021/05/14 06:16:25;;;;;;;7.70;4.90;;;14.20;99.90;;;;;;4752365;30;20197;-80
2021/05/14 06:19:01;;;;;;;10.30;5.57;;;;;;;;;;4767198;30;20759;-80
2021/05/14 06:21:27;;;;;;;7.80;5.03;;;;;;;;;;4753162;30;20201;-81
2021/05/14 06:23:52;;;;;;;9.82;5.57;;;13.90;99.90;;;;;;4769187;30;20197;-79
2021/05/14 06:26:18;;;;;;;9.90;5.38;;;;;;;;;;4779223;30;20200;-80
2021/05/14 06:28:44;;;;;;;8.77;6.07;;;13.90;99.90;;;;;;4754019;30;20205;-80
2021/05/14 06:31:10;;;;;;;11.05;6.30;;;;;;;;;;4752385;30;20196;-80
2021/05/14 06:33:36;;;;;;;6.53;5.20;;;14.00;99.90;;;;;;4768523;30;20197;-80
2021/05/14 06:36:02;;;;;;;8.05;5.90;;;;;;;;;;4768777;30;20225;-80
2021/05/14 06:38:28;;;;;;;7.70;6.30;;;14.50;99.90;;;;;;4768415;30;20186;-80
2021/05/14 06:40:55;;;;;;;9.90;6.68;;;14.10;99.90;;;;;;4768212;30;20238;-80
2021/05/14 06:43:21;;;;;;;8.70;6.72;;;13.70;99.90;;;;;;4770421;30;20223;-80
2021/05/14 06:45:46;;;;;;;9.18;6.63;;;14.20;99.90;;;;;;4754332;30;20194;-79
2021/05/14 06:48:15;;;;;;;9.85;6.13;;;;;;;;;;4754262;30;20655;-81
2021/05/14 06:50:42;;;;;;;8.30;5.82;;;14.20;99.90;;;;;;4741680;30;20195;-79
2021/05/14 06:53:09;;;;;;;9.85;6.47;;;;;;;;;;4768246;30;20197;-80
2021/05/14 06:55:35;;;;;;;8.80;6.03;;;14.80;99.90;;;;;;4768138;30;20197;-80
2021/05/14 06:58:03;;;;;;;8.88;6.45;;;14.90;99.90;;;;;;4751735;30;20686;-80
2021/05/14 07:00:29;;;;;;;7.88;6.55;;;14.70;99.90;;;;;;4767553;30;20263;-79
2021/05/14 07:02:54;;;;;;;8.13;6.13;;;14.90;99.90;;;;;;4752626;30;20193;-78
2021/05/14 07:05:20;;;;;;;9.02;5.93;;;;;;;;;;4767534;30;20217;-78
2021/05/14 07:07:46;;;;;;;7.47;5.85;;;15.50;99.90;;;;;;4767919;30;20202;-79
2021/05/14 07:10:12;;;;;;;7.43;5.95;;;;;;;;;;4767089;30;20229;-79
2021/05/14 07:12:39;;;;;;;9.25;5.50;;;16.10;99.90;;;;;;4767821;30;20193;-79
2021/05/14 07:15:07;;;;;;;6.10;4.88;;;15.70;99.90;;;;;;4768407;30;20687;-79
2021/05/14 07:17:33;;;;;;;6.20;5.07;;;15.80;99.90;;;;;;4768138;30;20383;-78
2021/05/14 07:19:58;;;;;;;6.43;4.57;;;15.90;99.90;;;;;;4752661;30;20304;-78
2021/05/14 07:22:24;;;;;;;5.22;4.70;;;15.80;99.90;;;;;;4769392;30;20221;-80
2021/05/14 07:24:50;;;;;;;6.57;5.43;;;;;;;;;;4738069;30;20406;-79
2021/05/14 07:27:16;;;;;;;5.60;4.97;;;;;;;;;;4768766;30;20198;-79
2021/05/14 07:29:42;;;;;;;6.18;5.15;;;16.10;99.90;;;;;;4768055;30;20193;-79
2021/05/14 07:32:09;;;;;;;9.15;5.30;;;15.80;99.90;;;;;;4768474;30;20186;-79
2021/05/14 07:34:35;;;;;;;8.13;6.55;;;16.00;99.90;;;;;;4768034;30;20671;-79
2021/05/14 07:37:01;;;;;;;8.55;5.53;;;;;;;;;;4768492;30;20194;-80
2021/05/14 07:39:26;;;;;;;6.60;5.00;;;16.00;99.90;;;;;;4752020;30;20225;-79
2021/05/14 07:41:52;;;;;;;5.80;4.85;;;;;;;;;;4768789;30;20572;-79
2021/05/14 07:44:21;;;;;;;6.22;5.15;;;;;;;;;;4752526;30;20198;-79
2021/05/14 07:46:47;;;;;;;6.32;5.25;;;;;;;;;;4737884;30;20198;-79
2021/05/14 07:49:14;;;;;;;8.45;5.68;;;16.00;99.90;;;;;;4768151;30;20276;-80
2021/05/14 07:51:40;;;;;;;6.05;5.22;;;;;;;;;;4768374;30;20723;-79
2021/05/14 07:54:06;;;;;;;9.32;6.15;;;;;;;;;;4752113;30;20225;-80
2021/05/14 07:56:32;;;;;;;6.75;5.85;;;15.80;99.90;;;;;;4752238;30;20200;-80
2021/05/14 07:58:58;;;;;;;10.38;7.30;;;16.20;99.90;;;;;;4767623;30;20593;-80
2021/05/14 08:01:24;;;;;;;7.70;6.15;;;;;;;;;;4768584;30;20194;-80
2021/05/14 08:03:49;;;;;;;6.20;5.35;;;17.00;99.90;;;;;;4751630;30;20667;-79
2021/05/14 08:06:18;;;;;;;7.53;5.45;;;16.80;99.90;;;;;;4750791;30;20190;-80
2021/05/14 08:08:44;;;;;;;6.38;5.40;;;16.90;99.90;;;;;;4765804;30;20186;-81
2021/05/14 08:11:10;;;;;;;5.93;4.30;;;;;;;;;;4766376;30;20530;-80
2021/05/14 08:13:36;;;;;;;5.38;4.88;;;;;;;;;;4749730;30;20341;-80
2021/05/14 08:16:02;;;;;;;9.90;6.63;;;16.70;99.90;;;;;;4736098;30;20516;-79
2021/05/14 08:18:28;;;;;;;8.52;5.90;;;16.60;99.90;;;;;;4750037;30;20251;-79
2021/05/14 08:20:54;;;;;;;9.18;5.47;;;16.80;99.90;;;;;;4770171;30;20239;-78
2021/05/14 08:23:21;;;;;;;5.75;4.93;;;16.70;99.90;;;;;;4771127;30;20197;-80
2021/05/14 08:25:48;;;;;;;12.95;7.28;;;16.60;99.90;;;;;;4770705;30;20201;-80
2021/05/14 08:28:14;;;;;;;11.55;6.43;;;16.40;99.90;;;;;;4770568;30;20194;-80
2021/05/14 08:30:42;;;;;;;13.88;9.82;;;17.00;99.90;;;;;;4770353;30;20272;-81
2021/05/14 08:33:08;;;;;;;9.50;6.93;;;17.10;99.90;;;;;;4770718;30;20549;-81
2021/05/14 08:35:38;;;;;;;10.30;7.32;;;16.70;99.90;;;;;;4770269;30;20286;-79
2021/05/14 08:38:05;;;;;;;12.27;8.48;;;16.70;99.90;;;;;;4770451;30;20190;-80
2021/05/14 08:40:33;;;;;;;12.85;7.93;;;16.60;99.90;;;;;;4754052;30;20586;-81
2021/05/14 08:42:59;;;;;;;12.50;8.25;;;;;;;;;;4739912;30;20202;-80
2021/05/14 08:45:26;;;;;;;12.13;8.98;;;17.10;99.90;;;;;;4770718;30;20243;-80
2021/05/14 08:47:54;;;;;;;13.25;9.25;;;17.00;99.90;;;;;;4769540;30;20190;-79
2021/05/14 08:50:21;;;;;;;12.68;8.82;;;;;;;;;;4770766;30;20701;-81
2021/05/14 08:52:47;;;;;;;15.10;10.27;;;20.20;99.90;;;;;;4770735;30;20218;-80
2021/05/14 08:55:13;;;;;;;13.60;9.43;;;17.50;99.90;;;;;;4770074;30;20221;-81
2021/05/14 08:57:42;;;;;;;18.73;12.75;;;17.70;99.90;;;;;;4754028;30;20201;-78
2021/05/14 09:00:10;;;;;;;14.32;9.13;;;17.80;99.90;;;;;;4739365;30;20703;-81
2021/05/14 09:02:37;;;;;;;14.55;8.18;;;17.90;99.90;;;;;;4753952;30;20552;-79
2021/05/14 09:05:21;;;;;;;13.68;9.55;;;17.60;99.90;;;;;;4770369;30;20238;-80
2021/05/14 09:07:47;;;;;;;10.65;7.78;;;17.70;99.90;;;;;;4762963;30;20194;-78
2021/05/14 09:10:13;;;;;;;11.77;8.57;;;17.60;99.90;;;;;;4753285;30;20554;-79
2021/05/14 09:12:41;;;;;;;9.68;6.70;;;18.00;99.90;;;;;;4769948;30;20201;-80
2021/05/14 09:15:25;;;;;;;8.68;5.07;;;17.90;99.90;;;;;;4751229;30;20273;-79
2021/05/14 09:18:29;;;;;;;6.40;4.40;;;17.90;99.90;;;;;;4769410;30;20234;-80
2021/05/14 09:21:00;;;;;;;7.18;4.30;;;17.50;99.90;;;;;;4750504;30;20858;-80
2021/05/14 09:23:29;;;;;;;5.53;3.25;;;17.20;99.90;;;;;;4753366;30;20190;-81
2021/05/14 09:26:10;;;;;;;4.25;2.83;;;16.90;99.90;;;;;;4769885;30;20280;-82
2021/05/14 09:28:36;;;;;;;6.22;2.88;;;;;;;;;;4769613;30;20193;-80
2021/05/14 09:31:16;;;;;;;4.55;2.58;;;17.00;99.90;;;;;;4770006;30;20204;-80
2021/05/14 09:33:48;;;;;;;3.88;2.90;;;17.30;99.90;;;;;;4754183;30;20192;-81
2021/05/14 09:36:21;;;;;;;5.05;2.80;;;17.30;99.90;;;;;;4754015;30;20202;-78
2021/05/14 09:39:02;;;;;;;5.50;3.42;;;16.60;99.90;;;;;;4769874;30;20178;-80
2021/05/14 09:41:46;;;;;;;4.07;3.00;;;16.30;99.90;;;;;;4751039;30;20198;-81
2021/05/14 09:44:13;;;;;;;5.60;3.50;;;;;;;;;;4753029;30;20276;-81
2021/05/14 09:46:54;;;;;;;5.80;3.55;;;16.20;99.90;;;;;;4753596;30;20565;-79
2021/05/14 09:49:22;;;;;;;4.40;3.72;;;16.40;99.90;;;;;;4769221;30;20182;-79
2021/05/14 09:51:49;;;;;;;8.35;4.15;;;16.70;99.90;;;;;;4769547;30;20526;-80
2021/05/14 09:54:22;;;;;;;5.50;4.20;;;16.60;99.90;;;;;;4769551;30;20706;-80
2021/05/14 09:59:50;;;;;;;4.07;3.15;;;17.10;99.90;;;;;;4762474;30;20214;-80
2021/05/14 10:02:23;;;;;;;7.85;3.47;;;16.90;99.90;;;;;;4769217;30;20305;-82
2021/05/14 10:04:50;;;;;;;5.95;3.50;;;17.40;99.90;;;;;;4768791;30;20246;-81
2021/05/14 10:07:16;;;;;;;6.65;3.22;;;16.70;99.90;;;;;;4768998;30;20672;-81
2021/05/14 10:09:45;;;;;;;8.15;3.00;;;17.30;99.90;;;;;;4769171;30;20220;-81
2021/05/14 10:12:13;;;;;;;3.80;3.10;;;16.60;99.90;;;;;;4752936;30;20190;-81
2021/05/14 10:14:40;;;;;;;6.93;3.10;;;16.60;99.90;;;;;;4738755;30;20178;-81
2021/05/14 10:17:06;;;;;;;4.78;2.85;;;16.40;99.90;;;;;;4752771;30;20203;-83
2021/05/14 10:19:35;;;;;;;4.25;3.17;;;16.50;99.90;;;;;;4752876;30;20218;-82
2021/05/14 10:22:02;;;;;;;5.85;3.00;;;16.40;99.90;;;;;;4752597;30;20707;-82
2021/05/14 10:24:53;;;;;;;4.13;3.30;;;16.60;99.90;;;;;;4768301;30;20675;-83
2021/05/14 10:27:21;;;;;;;7.22;3.28;;;16.70;99.90;;;;;;4768615;30;20178;-83
2021/05/14 10:29:50;;;;;;;7.97;3.65;;;16.80;99.90;;;;;;4752372;30;20190;-82
2021/05/14 10:32:16;;;;;;;5.63;3.78;;;17.00;99.90;;;;;;4768223;30;20286;-82
2021/05/14 10:34:42;;;;;;;4.38;3.08;;;;;;;;;;4768292;30;20210;-81
2021/05/14 10:37:08;;;;;;;4.65;3.47;;;16.90;99.90;;;;;;4752594;30;20804;-81
2021/05/14 10:39:36;;;;;;;4.85;3.70;;;17.00;99.90;;;;;;4752648;30;20225;-81
2021/05/14 10:42:11;;;;;;;4.32;3.40;;;17.00;99.90;;;;;;4765818;30;20273;-82
2021/05/14 10:44:41;;;;;;;4.40;3.17;;;17.00;99.90;;;;;;4752474;30;20242;-82
2021/05/14 10:47:21;;;;;;;4.28;3.17;;;17.10;99.90;;;;;;4751769;30;20690;-81
2021/05/14 10:49:55;;;;;;;3.30;3.00;;;17.00;99.90;;;;;;4764711;30;20225;-82
2021/05/14 10:52:21;;;;;;;6.15;2.97;;;17.40;99.90;;;;;;4742080;30;20207;-81
2021/05/14 10:54:48;;;;;;;3.85;2.95;;;16.80;99.90;;;;;;4751127;30;20189;-82
2021/05/14 10:57:34;;;;;;;4.72;3.20;;;17.00;99.90;;;;;;4735847;30;20661;-82
2021/05/14 11:00:23;;;;;;;4.15;3.17;;;17.10;99.90;;;;;;4751014;30;20221;-81
2021/05/14 11:03:10;;;;;;;4.05;3.40;;;16.60;99.90;;;;;;4768050;30;20656;-80
2021/05/14 11:05:38;;;;;;;4.25;3.08;;;16.90;99.90;;;;;;4752104;30;20206;-82
2021/05/14 11:08:04;;;;;;;6.47;3.83;;;16.80;99.90;;;;;;4751405;30;20213;-81
2021/05/14 11:10:31;;;;;;;3.90;3.53;;;16.40;99.90;;;;;;4765690;30;20210;-82
2021/05/14 11:12:57;;;;;;;5.63;4.25;;;17.10;99.90;;;;;;4765415;30;20646;-81
2021/05/14 11:15:34;;;;;;;5.47;4.70;;;16.90;99.90;;;;;;4752029;30;20185;-81
2021/05/14 11:18:06;;;;;;;4.80;3.95;;;16.90;99.90;;;;;;4767205;30;20263;-81
2021/05/14 11:20:42;;;;;;;4.82;3.67;;;17.00;99.90;;;;;;4767905;30;20232;-82
2021/05/14 11:23:40;;;;;;;5.20;4.05;;;17.00;99.90;;;;;;4764669;30;20276;-81
2021/05/14 11:26:17;;;;;;;10.13;6.25;;;16.70;99.90;;;;;;4762676;30;20198;-82
2021/05/14 11:28:51;;;;;;;4.22;3.80;;;17.10;99.90;;;;;;4751411;30;20549;-81
2021/05/14 11:31:22;;;;;;;6.80;4.47;;;16.70;99.90;;;;;;4751940;30;20182;-81
2021/05/14 11:33:49;;;;;;;5.50;3.80;;;17.00;99.90;;;;;;4749379;30;20531;-81
2021/05/14 11:36:15;;;;;;;4.15;3.60;;;17.20;99.90;;;;;;4751771;30;20280;-81
2021/05/14 11:38:48;;;;;;;4.70;4.18;;;16.70;99.90;;;;;;4749027;30;20328;-81
2021/05/14 11:41:24;;;;;;;4.20;3.72;;;16.80;99.90;;;;;;4766424;30;20209;-82
2021/05/14 11:43:56;;;;;;;4.00;3.60;;;17.30;99.90;;;;;;4765336;30;20687;-81
2021/05/14 11:46:26;;;;;;;4.28;3.80;;;17.10;99.90;;;;;;4764978;30;20202;-81
2021/05/14 11:48:52;;;;;;;5.75;4.22;;;;;;;;;;4743598;30;20194;-81
2021/05/14 11:51:18;;;;;;;4.75;3.75;;;17.10;99.90;;;;;;4751596;30;20198;-81
2021/05/14 11:53:43;;;;;;;5.22;4.10;;;17.10;99.90;;;;;;4752117;30;20189;-82
2021/05/14 11:56:09;;;;;;;4.57;3.75;;;17.00;99.90;;;;;;4770954;30;20201;-81
2021/05/14 11:58:35;;;;;;;4.55;3.60;;;17.10;99.90;;;;;;4754875;30;20190;-82
2021/05/14 12:01:03;;;;;;;6.35;4.28;;;17.00;99.90;;;;;;4752679;30;20229;-79
2021/05/14 12:03:29;;;;;;;5.07;4.03;;;17.30;99.90;;;;;;4755604;30;20272;-80
2021/05/14 12:06:06;;;;;;;6.75;3.75;;;17.00;99.90;;;;;;4772523;30;20716;-79
2021/05/14 12:08:32;;;;;;;6.57;4.30;;;17.10;99.90;;;;;;4771065;30;20233;-79
2021/05/14 12:11:10;;;;;;;5.50;4.35;;;16.80;99.90;;;;;;4770920;30;20625;-80
2021/05/14 12:13:40;;;;;;;7.47;4.30;;;16.70;99.90;;;;;;4740211;30;20194;-81
2021/05/14 12:16:07;;;;;;;4.95;4.03;;;16.80;99.90;;;;;;4770349;30;20194;-82
2021/05/14 12:18:45;;;;;;;5.38;4.45;;;16.80;99.90;;;;;;4770201;30;20242;-80
2021/05/14 12:21:21;;;;;;;6.53;5.38;;;16.60;99.90;;;;;;4754211;30;20312;-80
2021/05/14 12:23:47;;;;;;;8.23;5.97;;;;;;;;;;4770417;30;20194;-80
2021/05/14 12:26:13;;;;;;;7.72;6.07;;;16.30;99.90;;;;;;4770594;30;20300;-80
2021/05/14 12:28:46;;;;;;;6.85;5.63;;;16.60;99.90;;;;;;4754549;30;20198;-80
2021/05/14 12:31:26;;;;;;;10.73;6.63;;;16.40;99.90;;;;;;4752556;30;20182;-81
2021/05/14 12:34:11;;;;;;;7.88;6.40;;;16.40;99.90;;;;;;4754217;30;20604;-81
2021/05/14 12:36:39;;;;;;;8.75;6.32;;;16.30;99.90;;;;;;4754584;30;20194;-82
2021/05/14 12:39:05;;;;;;;7.60;6.30;;;;;;;;;;4767433;30;20205;-82
2021/05/14 12:41:36;;;;;;;7.80;6.15;;;16.80;99.90;;;;;;4770389;30;20220;-81
2021/05/14 12:44:18;;;;;;;9.30;7.25;;;16.90;99.90;;;;;;4739145;30;20194;-81
2021/05/14 12:47:02;;;;;;;7.80;6.40;;;16.30;99.90;;;;;;4753905;30;20178;-80
2021/05/14 12:49:43;;;;;;;7.63;6.05;;;17.20;99.90;;;;;;4753604;30;20204;-80
2021/05/14 12:52:26;;;;;;;10.75;6.60;;;17.20;99.90;;;;;;4770045;30;20265;-81
2021/05/14 12:54:59;;;;;;;8.05;6.13;;;16.70;99.90;;;;;;4752534;30;20267;-80
2021/05/14 12:57:40;;;;;;;10.65;6.80;;;16.50;99.90;;;;;;4769740;30;20277;-79
2021/05/14 13:00:17;;;;;;;7.60;6.05;;;16.70;99.90;;;;;;4770052;30;20243;-80
2021/05/14 13:02:51;;;;;;;6.88;5.82;;;17.10;99.90;;;;;;4754095;30;20659;-80
2021/05/14 13:05:18;;;;;;;12.60;8.32;;;17.10;99.90;;;;;;4766883;30;20277;-79
2021/05/14 13:08:05;;;;;;;9.38;7.15;;;16.90;99.90;;;;;;4767820;30;20198;-81
2021/05/14 13:10:35;;;;;;;8.57;6.32;;;17.00;99.90;;;;;;4738037;30;20194;-83
2021/05/14 13:13:01;;;;;;;9.02;6.43;;;;;;;;;;4768170;30;20198;-81
2021/05/14 13:15:27;;;;;;;8.20;5.97;;;;;;;;;;4754025;30;20190;-81
2021/05/14 13:17:53;;;;;;;9.38;5.38;;;;;;;;;;4753204;30;20245;-81
2021/05/14 13:20:19;;;;;;;6.72;5.45;;;17.00;99.90;;;;;;4744758;30;20749;-80